createdAt,value
2023-11-23T00:02:54.376Z,66.91
2023-11-23T00:06:20.210Z,66.93
2023-11-23T00:09:32.634Z,66.85
2023-11-23T00:12:44.922Z,67.04
2023-11-23T00:15:55.378Z,66.82
2023-11-23T00:19:05.845Z,66.79
2023-11-23T00:22:15.597Z,66.48
2023-11-23T00:25:25.848Z,66.29
2023-11-23T00:28:36.410Z,66.19
2023-11-23T00:31:46.988Z,66.16
2023-11-23T00:34:59.763Z,65.50
2023-11-23T00:38:15.083Z,64.92
2023-11-23T00:41:25.551Z,64.61
2023-11-23T00:44:37.746Z,64.31
2023-11-23T00:47:50.789Z,64.18
2023-11-23T00:51:09.421Z,63.82
2023-11-23T00:54:21.496Z,63.33
2023-11-23T00:57:30.878Z,63.15
2023-11-23T01:00:43.564Z,62.52
2023-11-23T01:03:54.335Z,62.29
2023-11-23T01:07:06.179Z,61.66
2023-11-23T01:10:16.333Z,61.25
2023-11-23T01:13:26.705Z,60.94
2023-11-23T01:16:38.229Z,61.51
2023-11-23T01:19:52.656Z,61.30
2023-11-23T01:23:03.626Z,60.20
2023-11-23T01:26:14.494Z,59.39
2023-11-23T01:32:38.479Z,58.76
2023-11-23T01:35:42.668Z,58.41
2023-11-23T01:38:47.694Z,58.12
2023-11-23T01:41:56.376Z,57.76
2023-11-23T01:45:06.713Z,57.06
2023-11-23T01:48:16.085Z,56.86
2023-11-23T01:55:12.502Z,56.45
2023-11-23T02:05:39.522Z,55.21
2023-11-23T02:08:50.646Z,56.08
2023-11-23T02:12:01.942Z,56.31
2023-11-23T02:15:22.670Z,55.69
2023-11-23T02:18:35.053Z,55.31
2023-11-23T02:25:20.970Z,55.28
2023-11-23T02:32:10.775Z,55.36
2023-11-23T02:35:25.351Z,54.64
2023-11-23T02:38:44.698Z,55.19
2023-11-23T02:41:59.899Z,54.55
2023-11-23T02:45:23.238Z,54.43
2023-11-23T02:49:22.940Z,53.57
2023-11-23T02:52:36.998Z,52.89
2023-11-23T02:56:11.628Z,52.66
2023-11-23T02:59:21.782Z,52.08
2023-11-23T03:02:36.445Z,53.13
2023-11-23T03:05:45.837Z,53.11
2023-11-23T03:09:15.578Z,53.22
2023-11-23T03:12:31.614Z,52.95
2023-11-23T03:15:47.969Z,52.85
2023-11-23T03:18:59.462Z,53.06
2023-11-23T03:25:44.227Z,52.62
2023-11-23T03:32:44.185Z,51.28
2023-11-23T03:39:50.943Z,51.55
2023-11-23T03:42:59.663Z,51.28
2023-11-23T03:46:32.953Z,51.16
2023-11-23T03:49:43.845Z,51.32
2023-11-23T03:53:11.310Z,50.81
2023-11-23T03:56:46.156Z,51.15
2023-11-23T03:59:52.736Z,50.65
2023-11-23T04:03:02.133Z,50.78
2023-11-23T04:06:18.827Z,50.19
2023-11-23T04:09:34.346Z,49.71
2023-11-23T04:12:52.108Z,49.37
2023-11-23T04:16:15.832Z,49.92
2023-11-23T04:23:05.164Z,50.63
2023-11-23T04:26:15.765Z,50.68
2023-11-23T04:29:29.474Z,50.69
2023-11-23T04:36:11.832Z,50.41
2023-11-23T04:39:25.259Z,50.07
2023-11-23T04:42:41.742Z,48.86
2023-11-23T04:45:49.921Z,47.95
2023-11-23T04:49:02.317Z,48.21
2023-11-23T04:52:23.893Z,48.00
2023-11-23T04:55:37.484Z,47.18
2023-11-23T04:58:46.085Z,46.07
2023-11-23T05:06:04.741Z,47.43
2023-11-23T05:09:19.138Z,47.34
2023-11-23T05:12:42.659Z,47.81
2023-11-23T05:15:54.528Z,48.20
2023-11-23T05:29:51.257Z,47.39
2023-11-23T05:37:35.597Z,47.18
2023-11-23T05:40:56.262Z,47.04
2023-11-23T05:44:17.698Z,46.52
2023-11-23T05:47:26.304Z,45.93
2023-11-23T05:50:58.378Z,45.24
2023-11-23T06:01:15.671Z,44.54
2023-11-23T06:07:42.114Z,44.05
2023-11-23T06:14:39.717Z,43.92
2023-11-23T06:18:10.763Z,44.24
2023-11-23T06:24:52.469Z,43.73
2023-11-23T06:28:14.635Z,43.66
2023-11-23T06:31:24.683Z,43.11
2023-11-23T06:34:30.946Z,43.52
2023-11-23T06:37:35.943Z,43.60
2023-11-23T06:40:43.073Z,43.84
2023-11-23T06:43:52.759Z,43.67
2023-11-23T06:46:57.759Z,44.23
2023-11-23T06:50:07.188Z,44.29
2023-11-23T06:53:20.036Z,44.37
2023-11-23T06:56:30.290Z,44.92
2023-11-23T06:59:38.377Z,45.57
2023-11-23T07:02:46.536Z,45.42
2023-11-23T07:14:44.948Z,46.62
2023-11-23T07:17:52.147Z,46.14
2023-11-23T07:20:57.433Z,46.52
2023-11-23T07:24:09.158Z,46.15
2023-11-23T07:27:21.311Z,46.18
2023-11-23T07:30:27.645Z,46.24
2023-11-23T07:33:41.640Z,46.13
2023-11-23T07:36:54.341Z,46.00
2023-11-23T07:39:59.645Z,45.60
2023-11-23T07:43:09.794Z,45.79
2023-11-23T07:46:15.681Z,46.15
2023-11-23T07:49:21.011Z,46.31
2023-11-23T07:52:27.094Z,46.09
2023-11-23T07:55:46.826Z,46.14
2023-11-23T07:58:54.745Z,45.97
2023-11-23T08:05:54.975Z,45.48
2023-11-23T08:13:00.084Z,44.99
2023-11-23T08:16:06.566Z,44.86
2023-11-23T08:19:12.341Z,45.62
2023-11-23T08:22:30.482Z,46.82
2023-11-23T08:25:38.676Z,48.10
2023-11-23T08:28:46.069Z,49.13
2023-11-23T08:31:57.352Z,49.67
2023-11-23T08:35:06.082Z,49.72
2023-11-23T08:38:16.126Z,50.05
2023-11-23T08:41:28.282Z,50.53
2023-11-23T08:44:45.349Z,51.34
2023-11-23T08:47:54.136Z,51.48
2023-11-23T08:51:03.654Z,51.91
2023-11-23T08:54:14.970Z,52.16
2023-11-23T08:57:25.705Z,52.32
2023-11-23T09:04:02.348Z,52.89
2023-11-23T09:07:14.947Z,53.10
2023-11-23T09:10:37.340Z,53.03
2023-11-23T09:13:49.021Z,53.69
2023-11-23T09:17:06.668Z,54.24
2023-11-23T09:23:59.860Z,55.59
2023-11-23T09:27:11.737Z,55.99
2023-11-23T09:30:22.980Z,56.13
2023-11-23T09:33:41.977Z,55.71
2023-11-23T09:36:53.309Z,56.62
2023-11-23T09:40:02.928Z,56.27
2023-11-23T09:43:20.936Z,56.69
2023-11-23T09:50:17.541Z,57.25
2023-11-23T09:53:30.933Z,57.61
2023-11-23T09:57:08.354Z,57.77
2023-11-23T10:00:27.126Z,57.86
2023-11-23T10:03:44.312Z,58.11
2023-11-23T10:07:28.920Z,57.71
2023-11-23T10:10:42.469Z,57.69
2023-11-23T10:17:50.675Z,57.55
2023-11-23T10:27:50.674Z,57.40
2023-11-23T10:30:59.807Z,57.78
2023-11-23T10:37:39.668Z,58.55
2023-11-23T10:40:56.354Z,58.11
2023-11-23T10:44:10.123Z,58.37
2023-11-23T10:47:23.345Z,58.73
2023-11-23T10:50:35.253Z,58.94
2023-11-23T10:53:51.761Z,58.92
2023-11-23T11:04:01.494Z,58.94
2023-11-23T11:07:57.377Z,59.16
2023-11-23T11:11:24.605Z,59.12
2023-11-23T11:14:43.004Z,59.20
2023-11-23T11:17:54.407Z,59.50
2023-11-23T11:21:21.974Z,59.72
2023-11-23T11:24:40.272Z,60.03
2023-11-23T11:27:59.974Z,60.24
2023-11-23T11:31:23.770Z,60.41
2023-11-23T11:38:00.973Z,60.62
2023-11-23T11:41:17.742Z,60.50
2023-11-23T11:44:35.628Z,60.54
2023-11-23T11:47:50.912Z,60.64
2023-11-23T11:51:04.066Z,60.71
2023-11-23T11:54:49.355Z,61.00
2023-11-23T12:01:44.319Z,61.50
2023-11-23T12:12:18.474Z,61.52
2023-11-23T12:16:07.077Z,61.66
2023-11-23T12:23:20.619Z,61.78
2023-11-23T12:26:38.783Z,61.83
2023-11-23T12:29:59.119Z,62.00
2023-11-23T12:36:43.764Z,61.93
2023-11-23T12:44:19.586Z,61.87
2023-11-23T12:47:32.653Z,61.84
2023-11-23T12:50:42.730Z,61.81
2023-11-23T13:05:23.627Z,61.34
2023-11-23T13:12:15.091Z,61.41
2023-11-23T13:15:33.518Z,61.48
2023-11-23T13:33:33.268Z,60.87
2023-11-23T14:13:10.795Z,59.71
2023-11-23T14:16:21.850Z,59.84
2023-11-23T14:19:35.909Z,59.53
2023-11-23T15:14:45.391Z,59.88
2023-11-23T15:21:46.147Z,59.68
2023-11-23T15:39:04.123Z,59.74
2023-11-23T15:42:28.476Z,59.76
2023-11-23T15:49:19.915Z,59.89
2023-11-23T15:52:37.883Z,60.08
2023-11-23T15:56:19.535Z,60.20
2023-11-23T16:03:11.660Z,60.78
2023-11-23T16:10:19.204Z,61.31
2023-11-23T16:24:56.895Z,62.79
2023-11-23T16:31:42.199Z,63.13
2023-11-23T16:46:18.552Z,63.39
2023-11-23T16:49:44.160Z,63.58
2023-11-23T16:53:14.046Z,63.62
2023-11-23T16:57:02.626Z,63.56
2023-11-23T17:04:29.217Z,63.47
2023-11-23T17:07:42.574Z,63.43
2023-11-23T17:11:22.499Z,63.62
2023-11-23T17:14:41.106Z,64.03
2023-11-23T17:17:58.114Z,64.27
2023-11-23T17:24:57.118Z,64.62
2023-11-23T17:31:50.838Z,64.31
2023-11-23T17:35:11.418Z,64.43
2023-11-23T17:38:34.406Z,64.68
2023-11-23T17:42:11.677Z,64.93
2023-11-23T17:45:29.951Z,65.31
2023-11-23T17:49:05.147Z,65.59
2023-11-23T17:52:25.240Z,65.64
2023-11-23T17:55:42.181Z,65.47
2023-11-23T18:02:39.283Z,65.33
2023-11-23T18:06:03.202Z,64.95
2023-11-23T18:09:22.144Z,64.91
2023-11-23T18:12:46.013Z,64.46
2023-11-23T18:16:29.123Z,64.19
2023-11-23T18:20:08.339Z,64.16
2023-11-23T18:23:27.399Z,64.25
2023-11-23T18:27:08.665Z,64.03
2023-11-23T18:30:32.136Z,64.18
2023-11-23T18:37:35.905Z,64.14
2023-11-23T18:40:54.964Z,64.12
2023-11-23T18:44:16.982Z,64.13
2023-11-23T18:47:37.424Z,64.14
2023-11-23T18:54:22.556Z,64.64
2023-11-23T18:57:44.857Z,64.55
2023-11-23T19:04:52.855Z,64.12
2023-11-23T19:12:03.144Z,64.61
2023-11-23T19:19:10.880Z,64.99
2023-11-23T19:26:35.647Z,64.98
2023-11-23T19:33:36.304Z,65.31
2023-11-23T19:37:19.647Z,65.37
2023-11-23T19:40:51.496Z,65.44
2023-11-23T19:44:17.204Z,65.82
2023-11-23T19:47:35.784Z,65.67
2023-11-23T19:50:56.351Z,65.86
2023-11-23T19:54:22.332Z,65.76
2023-11-23T19:57:37.451Z,65.56
2023-11-23T20:01:03.486Z,65.62
2023-11-23T20:07:47.867Z,65.58
2023-11-23T20:10:53.411Z,65.97
2023-11-23T20:14:57.271Z,66.07
2023-11-23T20:22:19.236Z,65.65
2023-11-23T20:25:31.399Z,65.61
2023-11-23T20:28:46.408Z,65.67
2023-11-23T20:32:25.502Z,65.51
2023-11-23T20:35:38.123Z,65.57
2023-11-23T20:42:43.914Z,65.57
2023-11-23T20:46:02.369Z,65.23
2023-11-23T20:49:31.591Z,65.57
2023-11-23T20:52:47.344Z,66.08
2023-11-23T20:56:15.951Z,66.03
2023-11-23T20:59:28.717Z,66.14
2023-11-23T21:02:50.331Z,66.37
2023-11-23T21:06:14.084Z,66.27
2023-11-23T21:09:41.513Z,66.33
2023-11-23T21:12:57.107Z,67.62
2023-11-23T21:19:38.546Z,68.14
2023-11-23T21:22:56.503Z,68.78
2023-11-23T21:29:28.564Z,68.62
2023-11-23T21:32:38.129Z,68.77
2023-11-23T21:35:46.054Z,68.45
2023-11-23T21:39:02.481Z,68.39
2023-11-23T21:45:59.600Z,68.57
2023-11-23T21:49:13.251Z,68.45
2023-11-23T21:52:33.638Z,69.03
2023-11-23T21:55:51.510Z,69.28
2023-11-23T21:59:18.662Z,69.61
2023-11-23T22:02:34.168Z,69.82
2023-11-23T22:05:53.074Z,69.76
2023-11-23T22:09:12.658Z,69.82
2023-11-23T22:12:21.416Z,69.59
2023-11-23T22:15:40.876Z,69.67
2023-11-23T22:19:14.381Z,69.50
2023-11-23T22:22:42.344Z,68.56
2023-11-23T22:25:54.974Z,67.34
2023-11-23T22:29:12.600Z,67.81
2023-11-23T22:32:25.027Z,67.73
2023-11-23T22:35:55.975Z,67.73
2023-11-23T22:50:05.940Z,67.73
2023-11-23T22:53:22.740Z,67.30
2023-11-23T23:00:11.806Z,68.46
2023-11-23T23:04:06.426Z,68.49
2023-11-23T23:07:47.279Z,67.59
2023-11-23T23:15:30.554Z,66.03
2023-11-23T23:18:43.168Z,65.79
2023-11-23T23:22:20.455Z,65.24
2023-11-23T23:25:35.416Z,65.90
2023-11-23T23:29:05.267Z,67.08
2023-11-23T23:32:27.426Z,66.47
2023-11-23T23:35:46.565Z,64.99
2023-11-23T23:39:03.722Z,66.31
2023-11-23T23:42:24.958Z,65.68
2023-11-23T23:45:47.480Z,67.42
